createdAt,value
2022-08-23T00:02:22.967Z,99809.22
2022-08-23T00:05:03.500Z,99813.91
2022-08-23T00:07:42.233Z,99812.00
2022-08-23T00:10:12.207Z,99807.72
2022-08-23T00:12:40.465Z,99815.25
2022-08-23T00:15:10.308Z,99803.59
2022-08-23T00:17:37.754Z,99804.88
2022-08-23T00:20:10.024Z,99810.28
2022-08-23T00:22:40.220Z,99806.88
2022-08-23T00:25:09.994Z,99801.94
2022-08-23T00:27:37.012Z,99802.16
2022-08-23T00:30:07.361Z,99801.94
2022-08-23T00:32:37.823Z,99800.59
2022-08-23T00:35:05.751Z,99803.09
2022-08-23T00:37:34.014Z,99797.06
2022-08-23T00:40:02.115Z,99807.59
2022-08-23T00:42:56.994Z,99801.84
2022-08-23T00:46:19.213Z,99813.81
2022-08-23T00:48:46.755Z,99809.75
2022-08-23T00:51:30.588Z,99810.31
2022-08-23T00:54:00.437Z,99811.31
2022-08-23T00:56:31.358Z,99817.53
2022-08-23T00:58:58.634Z,99813.41
2022-08-23T01:01:26.416Z,99807.94
2022-08-23T01:04:04.879Z,99813.38
2022-08-23T01:06:42.503Z,99813.88
2022-08-23T01:09:13.877Z,99813.69
2022-08-23T01:11:56.567Z,99811.28
2022-08-23T01:14:43.810Z,99804.81
2022-08-23T01:17:22.754Z,99809.38
2022-08-23T01:19:57.793Z,99805.59
2022-08-23T01:22:35.281Z,99814.81
2022-08-23T01:25:08.453Z,99812.41
2022-08-23T01:27:42.412Z,99805.84
2022-08-23T01:30:16.227Z,99807.03
2022-08-23T01:32:58.415Z,99806.69
2022-08-23T01:35:43.405Z,99803.44
2022-08-23T01:38:12.313Z,99806.88
2022-08-23T01:40:40.652Z,99808.53
2022-08-23T01:43:09.151Z,99806.38
2022-08-23T01:45:39.833Z,99812.34
2022-08-23T01:48:08.842Z,99805.03
2022-08-23T01:53:23.936Z,99806.59
2022-08-23T01:55:51.115Z,99808.28
2022-08-23T01:58:20.262Z,99808.53
2022-08-23T02:00:47.535Z,99805.31
2022-08-23T02:03:16.013Z,99813.25
2022-08-23T02:05:43.360Z,99809.28
2022-08-23T02:08:30.487Z,99806.72
2022-08-23T02:10:59.446Z,99822.25
2022-08-23T02:13:27.233Z,99809.00
2022-08-23T02:15:55.301Z,99812.13
2022-08-23T02:18:23.685Z,99825.72
2022-08-23T02:20:52.726Z,99825.69
2022-08-23T02:23:21.171Z,99824.28
2022-08-23T02:25:48.435Z,99824.53
2022-08-23T02:28:15.487Z,99822.09
2022-08-23T02:30:45.425Z,99827.63
2022-08-23T02:33:14.900Z,99834.38
2022-08-23T02:35:44.330Z,99836.38
2022-08-23T02:38:13.047Z,99835.53
2022-08-23T02:40:41.546Z,99838.44
2022-08-23T02:43:08.784Z,99831.72
2022-08-23T02:45:37.443Z,99839.25
2022-08-23T02:48:05.175Z,99838.13
2022-08-23T02:50:41.104Z,99844.91
2022-08-23T02:53:08.658Z,99847.88
2022-08-23T02:55:35.792Z,99847.84
2022-08-23T02:58:02.885Z,99850.88
2022-08-23T03:00:30.059Z,99853.28
2022-08-23T03:02:57.478Z,99855.47
2022-08-23T03:05:25.233Z,99853.88
2022-08-23T03:07:52.298Z,99858.50
2022-08-23T03:10:19.283Z,99854.66
2022-08-23T03:12:52.770Z,99867.31
2022-08-23T03:15:19.892Z,99868.25
2022-08-23T03:17:47.019Z,99864.91
2022-08-23T03:20:14.208Z,99870.84
2022-08-23T03:22:48.382Z,99874.94
2022-08-23T03:25:22.823Z,99876.31
2022-08-23T03:28:08.970Z,99869.50
2022-08-23T03:30:40.465Z,99876.97
2022-08-23T03:33:08.816Z,99879.03
2022-08-23T03:35:35.964Z,99875.84
2022-08-23T03:38:04.224Z,99881.50
2022-08-23T03:40:31.319Z,99879.03
2022-08-23T03:42:58.316Z,99885.25
2022-08-23T03:45:28.316Z,99883.09
2022-08-23T03:47:55.908Z,99889.50
2022-08-23T03:50:23.934Z,99893.66
2022-08-23T03:52:51.802Z,99890.22
2022-08-23T03:55:18.911Z,99900.56
2022-08-23T03:57:49.259Z,99890.25
2022-08-23T04:00:20.458Z,99888.91
2022-08-23T04:02:50.076Z,99896.50
2022-08-23T04:05:17.530Z,99899.50
2022-08-23T04:07:50.573Z,99904.72
2022-08-23T04:10:20.226Z,99902.97
2022-08-23T04:12:50.168Z,99908.50
2022-08-23T04:15:19.790Z,99903.84
2022-08-23T04:17:48.129Z,99911.69
2022-08-23T04:20:16.913Z,99912.25
2022-08-23T04:23:04.173Z,99918.56
2022-08-23T04:25:36.806Z,99917.25
2022-08-23T04:28:05.878Z,99915.09
2022-08-23T04:30:34.135Z,99924.38
2022-08-23T04:33:03.140Z,99926.53
2022-08-23T04:35:39.094Z,99935.69
2022-08-23T04:38:24.270Z,99933.53
2022-08-23T04:41:13.393Z,99929.47
2022-08-23T04:43:42.234Z,99928.34
2022-08-23T04:46:15.547Z,99936.94
2022-08-23T04:48:45.957Z,99945.41
2022-08-23T04:51:13.397Z,99945.13
2022-08-23T04:53:41.708Z,99945.38
2022-08-23T04:56:38.870Z,99949.41
2022-08-23T04:59:07.867Z,99954.50
2022-08-23T05:01:42.954Z,99951.50
2022-08-23T05:04:10.904Z,99953.50
2022-08-23T05:06:40.063Z,99957.69
2022-08-23T05:09:07.045Z,99960.41
2022-08-23T05:11:35.698Z,99956.47
2022-08-23T05:14:03.020Z,99954.94
2022-08-23T05:16:30.614Z,99945.72
2022-08-23T05:19:03.116Z,99956.63
2022-08-23T05:21:32.580Z,99954.09
2022-08-23T05:24:00.696Z,99955.94
2022-08-23T05:26:30.943Z,99955.94
2022-08-23T05:28:57.958Z,99957.41
2022-08-23T05:31:30.668Z,99959.38
2022-08-23T05:34:00.987Z,99949.31
2022-08-23T05:36:47.632Z,99957.84
2022-08-23T05:39:33.001Z,99961.88
2022-08-23T05:42:11.527Z,99964.63
2022-08-23T05:44:38.574Z,99966.00
2022-08-23T05:47:12.278Z,99962.44
2022-08-23T05:50:15.722Z,99966.06
2022-08-23T05:52:42.944Z,99963.97
2022-08-23T05:55:10.911Z,99965.06
2022-08-23T05:57:40.805Z,99961.88
2022-08-23T06:00:14.381Z,99959.09
2022-08-23T06:02:49.382Z,99962.34
2022-08-23T06:05:19.809Z,99963.44
2022-08-23T06:07:49.559Z,99966.06
2022-08-23T06:10:20.951Z,99965.06
2022-08-23T06:13:03.638Z,99964.56
2022-08-23T06:15:31.665Z,99961.34
2022-08-23T06:17:59.767Z,99966.22
2022-08-23T06:20:27.253Z,99964.88
2022-08-23T06:23:00.270Z,99959.44
2022-08-23T06:25:29.150Z,99958.03
2022-08-23T06:28:07.599Z,99960.00
2022-08-23T06:30:40.066Z,99958.06
2022-08-23T06:33:21.165Z,99951.59
2022-08-23T06:36:13.863Z,99952.59
2022-08-23T06:39:14.141Z,99954.50
2022-08-23T06:42:13.302Z,99958.41
2022-08-23T06:44:50.996Z,99949.16
2022-08-23T06:47:27.094Z,99957.88
2022-08-23T06:49:57.858Z,99951.66
2022-08-23T06:52:49.056Z,99945.13
2022-08-23T06:55:36.634Z,99948.38
2022-08-23T06:58:15.305Z,99946.41
2022-08-23T07:01:35.068Z,99958.72
2022-08-23T07:04:20.046Z,99967.72
2022-08-23T07:07:11.337Z,99965.81
2022-08-23T07:09:40.904Z,99971.44
2022-08-23T07:12:08.450Z,99963.50
2022-08-23T07:14:38.554Z,99963.84
2022-08-23T07:17:05.780Z,99975.31
2022-08-23T07:19:34.864Z,99979.97
2022-08-23T07:22:04.337Z,99978.06
2022-08-23T07:24:33.847Z,99972.91
2022-08-23T07:27:07.320Z,99975.34
2022-08-23T07:29:38.314Z,99991.16
2022-08-23T07:32:06.202Z,99990.34
2022-08-23T07:34:36.040Z,100003.19
2022-08-23T07:37:04.416Z,99988.19
2022-08-23T07:39:38.394Z,99992.53
2022-08-23T07:42:22.697Z,100000.19
2022-08-23T07:44:53.814Z,99990.63
2022-08-23T07:47:23.085Z,99993.34
2022-08-23T07:49:51.412Z,100001.78
2022-08-23T07:52:18.759Z,99997.44
2022-08-23T07:54:48.696Z,100006.69
2022-08-23T07:57:42.214Z,100006.94
2022-08-23T08:00:32.287Z,100010.78
2022-08-23T08:03:14.093Z,100002.28
2022-08-23T08:06:07.317Z,100019.50
2022-08-23T08:08:34.591Z,100006.91
2022-08-23T08:11:01.787Z,100007.72
2022-08-23T08:13:29.729Z,100010.72
2022-08-23T08:15:57.208Z,100003.56
2022-08-23T08:18:27.459Z,100012.09
2022-08-23T08:21:16.528Z,100011.00
2022-08-23T08:24:00.830Z,100012.63
2022-08-23T08:26:47.152Z,100015.94
2022-08-23T08:29:14.916Z,100016.34
2022-08-23T08:31:46.766Z,100015.09
2022-08-23T08:34:14.330Z,100018.50
2022-08-23T08:36:43.485Z,100016.84
2022-08-23T08:39:24.075Z,100021.75
2022-08-23T08:42:19.528Z,100028.03
2022-08-23T08:44:58.225Z,100034.41
2022-08-23T08:47:41.160Z,100037.00
2022-08-23T08:50:16.398Z,100040.09
2022-08-23T08:53:03.974Z,100054.66
2022-08-23T08:56:12.799Z,100051.94
2022-08-23T08:58:51.390Z,100054.91
2022-08-23T09:01:21.928Z,100053.56
2022-08-23T09:03:52.375Z,100056.84
2022-08-23T09:06:28.529Z,100064.47
2022-08-23T09:09:15.065Z,100060.00
2022-08-23T09:11:58.722Z,100063.63
2022-08-23T09:14:28.548Z,100067.88
2022-08-23T09:17:05.845Z,100066.47
2022-08-23T09:19:37.523Z,100065.97
2022-08-23T09:22:13.655Z,100074.88
2022-08-23T09:24:42.051Z,100070.44
2022-08-23T09:27:22.596Z,100072.66
2022-08-23T09:30:01.346Z,100072.38
2022-08-23T09:32:34.242Z,100068.09
2022-08-23T09:35:14.670Z,100068.59
2022-08-23T09:37:57.899Z,100056.06
2022-08-23T09:40:38.631Z,100050.16
2022-08-23T09:43:14.762Z,100050.94
2022-08-23T09:46:04.552Z,100054.19
2022-08-23T09:48:44.304Z,100054.28
2022-08-23T09:51:34.993Z,100055.28
2022-08-23T09:54:23.326Z,100061.41
2022-08-23T09:56:59.863Z,100060.06
2022-08-23T09:59:27.462Z,100060.22
2022-08-23T10:02:02.576Z,100067.13
2022-08-23T10:04:37.416Z,100064.66
2022-08-23T10:07:40.370Z,100069.03
2022-08-23T10:10:17.835Z,100068.09
2022-08-23T10:12:46.653Z,100067.31
2022-08-23T10:15:15.708Z,100075.94
2022-08-23T10:17:47.425Z,100071.84
2022-08-23T10:20:29.362Z,100065.13
2022-08-23T10:23:07.083Z,100069.59
2022-08-23T10:25:55.247Z,100061.63
2022-08-23T10:28:46.592Z,100069.78
2022-08-23T10:31:35.881Z,100073.13
2022-08-23T10:34:48.469Z,100076.84
2022-08-23T10:38:02.743Z,100083.06
2022-08-23T10:40:41.474Z,100083.53
2022-08-23T10:43:26.197Z,100081.81
2022-08-23T10:46:00.407Z,100085.84
2022-08-23T10:48:43.986Z,100087.16
2022-08-23T10:51:22.616Z,100077.34
2022-08-23T10:53:57.141Z,100079.97
2022-08-23T10:56:24.456Z,100071.94
2022-08-23T10:59:00.077Z,100082.63
2022-08-23T11:01:53.072Z,100075.47
2022-08-23T11:04:41.261Z,100074.81
2022-08-23T11:07:34.385Z,100076.97
2022-08-23T11:10:26.596Z,100061.47
2022-08-23T11:13:01.743Z,100076.75
2022-08-23T11:15:58.794Z,100080.53
2022-08-23T11:18:36.135Z,100075.38
2022-08-23T11:21:09.912Z,100081.63
2022-08-23T11:23:58.616Z,100072.56
2022-08-23T11:26:27.659Z,100073.44
2022-08-23T11:29:10.851Z,100081.16
2022-08-23T11:31:51.180Z,100071.56
2022-08-23T11:34:29.654Z,100066.94
2022-08-23T11:37:30.505Z,100065.72
2022-08-23T11:40:09.486Z,100071.09
2022-08-23T11:42:37.789Z,100072.56
2022-08-23T11:45:28.741Z,100074.88
2022-08-23T11:48:16.537Z,100071.63
2022-08-23T11:51:11.921Z,100066.72
2022-08-23T11:53:41.910Z,100081.16
2022-08-23T11:56:16.383Z,100080.78
2022-08-23T11:59:15.379Z,100071.13
2022-08-23T12:01:44.978Z,100066.25
2022-08-23T12:04:26.149Z,100072.69
2022-08-23T12:07:02.119Z,100070.66
2022-08-23T12:09:29.446Z,100067.25
2022-08-23T12:11:56.409Z,100079.72
2022-08-23T12:14:32.244Z,100077.56
2022-08-23T12:17:04.191Z,100079.75
2022-08-23T12:19:40.551Z,100088.13
2022-08-23T12:22:36.985Z,100083.50
2022-08-23T12:25:08.209Z,100087.22
2022-08-23T12:27:41.351Z,100076.72
2022-08-23T12:30:11.101Z,100070.91
2022-08-23T12:32:50.289Z,100079.25
2022-08-23T12:35:30.403Z,100078.91
2022-08-23T12:38:23.292Z,100073.25
2022-08-23T12:40:54.618Z,100066.81
2022-08-23T12:43:23.725Z,100062.09
2022-08-23T12:45:56.931Z,100060.47
2022-08-23T12:48:28.009Z,100057.03
2022-08-23T12:50:57.074Z,100049.75
2022-08-23T12:53:29.618Z,100050.28
2022-08-23T12:56:04.702Z,100045.38
2022-08-23T12:58:34.131Z,100048.34
2022-08-23T13:01:03.823Z,100053.69
2022-08-23T13:03:39.806Z,100042.66
2022-08-23T13:06:11.879Z,100047.53
2022-08-23T13:08:42.926Z,100045.44
2022-08-23T13:11:21.936Z,100048.88
2022-08-23T13:13:49.419Z,100047.75
2022-08-23T13:16:27.980Z,100048.00
2022-08-23T13:19:10.342Z,100044.75
2022-08-23T13:21:40.006Z,100044.16
2022-08-23T13:24:38.376Z,100049.75
2022-08-23T13:27:26.492Z,100050.56
2022-08-23T13:29:57.667Z,100054.38
2022-08-23T13:32:49.679Z,100052.53
2022-08-23T13:35:45.643Z,100053.72
2022-08-23T13:38:20.834Z,100045.13
2022-08-23T13:40:59.547Z,100046.09
2022-08-23T13:43:32.551Z,100047.50
2022-08-23T13:46:32.425Z,100047.44
2022-08-23T13:49:12.049Z,100055.16
2022-08-23T13:51:40.924Z,100050.78
2022-08-23T13:54:10.924Z,100039.94
2022-08-23T13:56:48.395Z,100037.38
2022-08-23T13:59:31.267Z,100044.19
2022-08-23T14:02:09.160Z,100042.28
2022-08-23T14:04:36.342Z,100038.78
2022-08-23T14:07:03.816Z,100047.28
2022-08-23T14:09:30.933Z,100041.41
2022-08-23T14:12:03.109Z,100043.31
2022-08-23T14:14:33.402Z,100045.03
2022-08-23T14:17:02.805Z,100044.19
2022-08-23T14:22:19.434Z,100049.22
2022-08-23T14:24:46.747Z,100053.72
2022-08-23T14:27:14.735Z,100053.59
2022-08-23T14:29:41.908Z,100058.94
2022-08-23T14:32:08.944Z,100052.41
2022-08-23T14:34:36.022Z,100049.16
2022-08-23T14:39:50.423Z,100057.25
2022-08-23T14:42:20.801Z,100059.25
2022-08-23T14:44:48.362Z,100063.84
2022-08-23T14:47:15.681Z,100067.75
2022-08-23T14:49:42.853Z,100069.00
2022-08-23T14:52:11.839Z,100067.63
2022-08-23T14:54:39.168Z,100063.78
2022-08-23T14:57:06.284Z,100065.31
2022-08-23T14:59:33.411Z,100067.69
2022-08-23T15:02:01.265Z,100062.78
2022-08-23T15:04:34.731Z,100066.09
2022-08-23T15:07:19.607Z,100061.09
2022-08-23T15:09:54.608Z,100065.97
2022-08-23T15:15:14.133Z,100064.59
2022-08-23T15:17:51.936Z,100063.38
2022-08-23T15:20:20.933Z,100065.44
2022-08-23T15:22:55.403Z,100072.69
2022-08-23T15:25:25.071Z,100069.00
2022-08-23T15:27:52.968Z,100071.38
2022-08-23T15:30:21.986Z,100070.66
2022-08-23T15:32:52.147Z,100071.38
2022-08-23T15:35:22.725Z,100081.97
2022-08-23T15:37:50.478Z,100066.66
2022-08-23T15:40:17.657Z,100077.06
2022-08-23T15:42:44.752Z,100081.09
2022-08-23T15:45:11.964Z,100078.56
2022-08-23T15:48:07.199Z,100078.63
2022-08-23T15:50:35.485Z,100072.22
2022-08-23T15:53:02.853Z,100084.34
2022-08-23T15:55:32.779Z,100079.03
2022-08-23T15:58:00.389Z,100075.72
2022-08-23T16:00:28.006Z,100068.81
2022-08-23T16:03:19.198Z,100068.69
2022-08-23T16:05:44.987Z,100072.06
2022-08-23T16:08:17.558Z,100075.84
2022-08-23T16:10:44.733Z,100075.84
2022-08-23T16:13:11.780Z,100071.66
2022-08-23T16:15:40.084Z,100073.88
2022-08-23T16:18:08.189Z,100083.00
2022-08-23T16:20:35.356Z,100072.94
2022-08-23T16:23:02.513Z,100076.06
2022-08-23T16:25:29.821Z,100081.06
2022-08-23T16:27:57.046Z,100084.28
2022-08-23T16:30:24.462Z,100086.38
2022-08-23T16:32:51.519Z,100087.47
2022-08-23T16:35:18.634Z,100088.47
2022-08-23T16:37:45.578Z,100094.16
2022-08-23T16:40:13.198Z,100095.78
2022-08-23T16:42:40.648Z,100096.78
2022-08-23T16:45:08.800Z,100107.56
2022-08-23T16:47:41.136Z,100105.41
2022-08-23T16:50:09.578Z,100113.16
2022-08-23T16:52:37.088Z,100115.34
2022-08-23T16:55:07.242Z,100120.88
2022-08-23T16:57:34.474Z,100118.69
2022-08-23T17:00:02.280Z,100117.09
2022-08-23T17:02:33.456Z,100111.91
2022-08-23T17:05:02.437Z,100115.78
2022-08-23T17:07:29.575Z,100119.63
2022-08-23T17:09:56.800Z,100124.19
2022-08-23T17:12:23.756Z,100125.47
2022-08-23T17:14:51.531Z,100129.06
2022-08-23T17:17:18.659Z,100129.03
2022-08-23T17:19:45.846Z,100136.16
2022-08-23T17:22:13.557Z,100143.31
2022-08-23T17:24:40.907Z,100142.84
2022-08-23T17:27:08.124Z,100135.47
2022-08-23T17:29:37.632Z,100137.66
2022-08-23T17:32:04.925Z,100136.56
2022-08-23T17:34:31.934Z,100137.19
2022-08-23T17:37:00.108Z,100140.19
2022-08-23T17:39:29.409Z,100142.91
2022-08-23T17:41:58.041Z,100140.50
2022-08-23T17:44:25.191Z,100142.19
2022-08-23T17:46:53.188Z,100146.28
2022-08-23T17:49:20.551Z,100152.56
2022-08-23T17:51:47.670Z,100154.75
2022-08-23T17:54:15.894Z,100155.88
2022-08-23T17:56:49.936Z,100155.28
2022-08-23T17:59:21.735Z,100159.66
2022-08-23T18:01:48.982Z,100164.03
2022-08-23T18:04:16.092Z,100169.22
2022-08-23T18:06:43.170Z,100170.03
2022-08-23T18:09:10.384Z,100176.03
2022-08-23T18:11:37.737Z,100169.22
2022-08-23T18:14:05.489Z,100173.88
2022-08-23T18:16:35.641Z,100180.44
2022-08-23T18:19:05.472Z,100181.25
2022-08-23T18:21:33.225Z,100188.00
2022-08-23T18:24:00.440Z,100189.06
2022-08-23T18:26:46.483Z,100182.81
2022-08-23T18:29:14.640Z,100187.50
2022-08-23T18:31:44.218Z,100192.97
2022-08-23T18:34:11.979Z,100200.09
2022-08-23T18:36:39.201Z,100205.84
2022-08-23T18:39:08.248Z,100211.31
2022-08-23T18:41:35.651Z,100212.13
2022-08-23T18:44:05.741Z,100208.03
2022-08-23T18:46:39.066Z,100207.47
2022-08-23T18:49:07.407Z,100209.13
2022-08-23T18:51:34.485Z,100204.72
2022-08-23T18:54:01.982Z,100215.38
2022-08-23T18:56:29.032Z,100222.78
2022-08-23T18:58:56.129Z,100220.31
2022-08-23T19:01:35.918Z,100224.41
2022-08-23T19:04:05.054Z,100228.22
2022-08-23T19:06:32.380Z,100227.13
2022-08-23T19:09:01.117Z,100228.50
2022-08-23T19:11:29.479Z,100232.84
2022-08-23T19:13:59.192Z,100241.03
2022-08-23T19:16:26.872Z,100242.41
2022-08-23T19:18:55.204Z,100239.41
2022-08-23T19:21:24.516Z,100237.50
2022-08-23T19:23:54.316Z,100238.31
2022-08-23T19:26:31.770Z,100242.97
2022-08-23T19:29:00.244Z,100252.81
2022-08-23T19:31:33.524Z,100252.50
2022-08-23T19:34:03.665Z,100252.25
2022-08-23T19:36:45.661Z,100260.19
2022-08-23T19:39:14.373Z,100256.34
2022-08-23T19:41:42.002Z,100252.78
2022-08-23T19:44:09.623Z,100257.41
2022-08-23T19:46:42.026Z,100259.63
2022-08-23T19:49:10.527Z,100265.91
2022-08-23T19:51:38.491Z,100258.50
2022-08-23T19:54:10.877Z,100256.34
2022-08-23T19:56:51.918Z,100257.97
2022-08-23T19:59:25.487Z,100267.25
2022-08-23T20:01:53.742Z,100270.25
2022-08-23T20:04:22.288Z,100276.81
2022-08-23T20:06:49.483Z,100271.34
2022-08-23T20:09:17.743Z,100279.81
2022-08-23T20:11:45.210Z,100279.00
2022-08-23T20:14:12.493Z,100268.06
2022-08-23T20:16:41.622Z,100271.09
2022-08-23T20:19:10.113Z,100271.09
2022-08-23T20:21:38.753Z,100266.16
2022-08-23T20:24:07.900Z,100271.91
2022-08-23T20:26:41.219Z,100279.28
2022-08-23T20:29:10.932Z,100280.91
2022-08-23T20:31:46.446Z,100272.47
2022-08-23T20:34:13.796Z,100273.28
2022-08-23T20:36:40.757Z,100274.91
2022-08-23T20:39:08.058Z,100277.06
2022-08-23T20:41:37.582Z,100273.28
2022-08-23T20:44:05.769Z,100273.84
2022-08-23T20:46:33.371Z,100274.34
2022-08-23T20:49:00.463Z,100279.00
2022-08-23T20:51:28.846Z,100274.66
2022-08-23T20:53:57.001Z,100278.19
2022-08-23T20:56:25.332Z,100281.16
2022-08-23T20:58:52.737Z,100288.00
2022-08-23T21:01:20.020Z,100292.09
2022-08-23T21:03:47.092Z,100285.81
2022-08-23T21:06:19.945Z,100280.09
2022-08-23T21:08:53.864Z,100284.47
2022-08-23T21:11:22.792Z,100287.19
2022-08-23T21:13:49.912Z,100283.38
2022-08-23T21:16:18.176Z,100276.81
2022-08-23T21:18:45.607Z,100280.66
2022-08-23T21:21:13.645Z,100279.56
2022-08-23T21:23:40.861Z,100277.63
2022-08-23T21:26:09.103Z,100275.44
2022-08-23T21:28:36.624Z,100283.91
2022-08-23T21:31:09.016Z,100284.19
2022-08-23T21:33:39.975Z,100284.47
2022-08-23T21:36:11.535Z,100283.09
2022-08-23T21:38:39.582Z,100288.81
2022-08-23T21:41:11.056Z,100290.47
2022-08-23T21:43:39.057Z,100299.47
2022-08-23T21:46:07.407Z,100292.91
2022-08-23T21:48:34.660Z,100296.16
2022-08-23T21:51:01.806Z,100288.81
2022-08-23T21:53:28.968Z,100291.28
2022-08-23T21:55:55.950Z,100287.72
2022-08-23T21:58:25.950Z,100285.25
2022-08-23T22:00:53.007Z,100280.59
2022-08-23T22:03:20.187Z,100271.59
2022-08-23T22:05:48.105Z,100285.50
2022-08-23T22:08:17.124Z,100278.38
2022-08-23T22:10:57.269Z,100274.84
2022-08-23T22:13:28.316Z,100271.28
2022-08-23T22:15:55.480Z,100277.03
2022-08-23T22:18:22.589Z,100278.91
2022-08-23T22:20:49.656Z,100272.66
2022-08-23T22:23:17.421Z,100274.28
2022-08-23T22:25:44.623Z,100276.75
2022-08-23T22:28:11.732Z,100272.41
2022-08-23T22:30:38.912Z,100268.31
2022-08-23T22:33:06.203Z,100265.34
2022-08-23T22:35:35.258Z,100260.91
2022-08-23T22:38:13.689Z,100261.47
2022-08-23T22:40:51.860Z,100258.72
2022-08-23T22:43:20.694Z,100260.91
2022-08-23T22:45:58.786Z,100256.25
2022-08-23T22:48:29.827Z,100245.59
2022-08-23T22:51:06.547Z,100245.06
2022-08-23T22:53:35.896Z,100242.09
2022-08-23T22:56:04.216Z,100248.09
2022-08-23T22:58:31.970Z,100236.34
2022-08-23T23:00:59.412Z,100242.34
2022-08-23T23:03:31.860Z,100247.22
2022-08-23T23:05:58.836Z,100242.06
2022-08-23T23:08:27.775Z,100236.31
2022-08-23T23:11:05.763Z,100230.84
2022-08-23T23:13:34.220Z,100221.06
2022-08-23T23:16:11.536Z,100225.97
2022-08-23T23:18:40.384Z,100218.34
2022-08-23T23:21:08.566Z,100216.97
2022-08-23T23:23:37.510Z,100217.53
2022-08-23T23:26:08.195Z,100205.25
2022-08-23T23:28:35.375Z,100211.53
2022-08-23T23:31:03.518Z,100209.63
2022-08-23T23:33:30.566Z,100218.09
2022-08-23T23:35:57.577Z,100219.16
2022-08-23T23:38:27.901Z,100216.97
2022-08-23T23:40:55.059Z,100222.44
2022-08-23T23:43:22.027Z,100228.97
2022-08-23T23:45:49.054Z,100227.63
2022-08-23T23:48:16.588Z,100234.97
2022-08-23T23:50:45.028Z,100238.50
2022-08-23T23:53:14.590Z,100242.88
2022-08-23T23:55:42.511Z,100238.78
2022-08-23T23:58:10.317Z,100237.13
